Terminal Aerodrome Forecast
Issued by NWS Tampa Bay Area, FL

Home | Current Version | Previous Version | Text Only | Print | Product List | Glossary On
Versions: 1 2 3 4 5 6 7 8 9 10 11 12 13 14 15 16 17
000
FTUS42 KTBW 030540
TAFSRQ
TAF
KSRQ 030540Z 0306/0406 23010KT P6SM SCT025 BKN120 OVC250
     FM030800 22010KT P6SM VCSH SCT025 BKN050 OVC100
     FM031500 23014G20KT P6SM VCSH FEW025 SCT050 OVC100
     FM031800 24014G20KT P6SM VCTS SCT025CB BKN050 OVC080
     FM040200 25008KT P6SM SCT025 BKN035 OVC050=

USA.gov is the U.S. government's official web portal to all federal, state and local government web resources and services.